Russellville, AR

1:22 AM CST on March 01, 2015 (GMT -0600)
Russellville Regional | Change Station
CLOSE
Current Station
Airport
Location: Russellville,
Elevation: 404 ft
Nearby Weather Stations
Active Advisory: Winter Weather Advisory Active Notice: Record Report, Local Storm Report

Elev 404 ft 35.26 °N, 93.09 °W | Updated 7 minutes ago

Ice Pellets
Ice Pellets
33 °F
Feels Like 30 °F
N
4
Wind Variable Wind from SSW

Today
High -- | Low -- °F
--% Chance of Precip.
Yesterday
High -- | Low -- °F
Precip. -- in
6:42 AM 6:07 PM
Waxing Gibbous, 83% visible
Pressure 30.37 in
Visibility 5.0 miles
Clouds Overcast 4800 ft
Windchill 30 °F
Dew Point 30 °F
Humidity 89%
Rainfall 0.00 in
Snow Depth Not available.
UV 0 out of 12
Pollen 4.60 out of 12
Air Quality Not available.
Flu Activity Not available.
SPECI KRUE 010715Z AUTO 20003KT 5SM BR OVC048 01/M01 A3037 RMK AO2 FZRAE09 P0000 T00061011

More Conditions Fewer Conditions

Pressure 30.37 in
Visibility 5.0 miles
Clouds Overcast 4800 ft
Windchill 30 °F
Dew Point 30 °F
Humidity 89%
Rainfall 0.00 in
Snow Depth Not available.
UV 0 out of 12
Pollen 4.60 out of 12
Air Quality Not available.
Flu Activity Not available.
SPECI KRUE 010715Z AUTO 20003KT 5SM BR OVC048 01/M01 A3037 RMK AO2 FZRAE09 P0000 T00061011

More Conditions Fewer Conditions

10-Day Weather Forecast

Almanac

Astronomy

Mar. 01, 2015 Rise Set
Actual Time
Civil Twilight
Nautical Twilight
Astronomical Twilight
Moon
Length of Visible Light
Length of Day
Tomorrow will be .
, % of the Moon is Illuminated

Today's Extremes

State Highs State Lows

Community

WunderPhotos

Upload Photos

1,801,347 photos uploaded!

WunderBlogs® & News

Nearby

Air Quality

  Air Quality AQ Index Pollutant
Not available.

Snow Depth

Station Depth Elevation

Earthquake Activity

City Distance Mag. Time & Date
Minimum magnitude displayed is 2.5.

Coastal Water Temperatures

Place Temperature

Nearby Weather Stations

Winter Weather Advisory
Statement as of 11:16 PM CST on February 28, 2015

... Winter Weather Advisory remains in effect until 6 am CST
Sunday...

A Winter Weather Advisory remains in effect until 6 am CST
Sunday.

* Event: light freezing rain will continue overnight.

* Timing: freezing rain will continue overnight before
temperatures warm enough to change precipitation to rain
Sunday morning.

* Areas affected: parts of western... central... and northern
Arkansas.

* Ice amounts: ice accumulations of a few hundredths of an inch
will be possible.

* Impacts: wintry precipitation will continue to cause travel
issues on area roadways.

Precautionary/preparedness actions...

A Winter Weather Advisory means that periods of snow... sleet... or
freezing rain will cause travel difficulties. Be prepared for
slippery roads and limited visibilities... and use caution while
driving.